Time,TemperatureF,DewpointF,PressureIn,WindDirection,WindDirectionDegrees,WindSpeedMPH,WindSpeedGustMPH,Humidity,HourlyPrecipIn,Conditions,Clouds,dailyrainin,SolarRadiationWatts/m^2,SoftwareType,DateUTC
2013-05-24 00:00:00,65.5,59.2,29.92,NW,323,0.0,0.0,80,0.00,,OVC018,0.00,0.00,VWS V14.00,2013-05-24 04:00:00,
2013-05-24 01:00:00,66.3,58.9,29.92,NNW,347,0.0,0.0,77,0.00,,OVC018,0.00,0.00,VWS V14.00,2013-05-24 05:00:00,
2013-05-24 02:00:00,62.9,58.0,29.92,NNW,346,0.0,0.0,84,0.00,,OVC018,0.00,0.00,VWS V14.00,2013-05-24 06:00:00,
2013-05-24 03:00:00,62.6,57.4,29.91,North,359,0.0,3.0,83,0.00,,OVC018,0.00,0.00,VWS V14.00,2013-05-24 07:00:00,
2013-05-24 04:00:00,61.4,56.9,29.92,NNW,335,0.0,5.0,85,0.00,,OVC018,0.00,0.00,VWS V14.00,2013-05-24 08:00:00,
2013-05-24 05:00:00,60.0,56.1,29.92,NNW,347,0.0,0.0,87,0.00,,OVC018,0.00,0.00,VWS V14.00,2013-05-24 09:00:00,
2013-05-24 06:00:00,59.9,56.3,29.95,NNW,346,0.0,2.0,88,0.00,,OVC018,0.00,16.00,VWS V14.00,2013-05-24 10:00:00,
2013-05-24 07:00:00,62.2,57.3,29.97,WNW,294,3.0,5.0,84,0.00,,OVC018,0.00,35.00,VWS V14.00,2013-05-24 11:00:00,
2013-05-24 08:00:00,66.9,58.7,29.99,NW,326,3.0,10.0,75,0.00,,OVC018,0.00,364.00,VWS V14.00,2013-05-24 12:00:00,
2013-05-24 09:00:00,71.3,59.4,30.02,North,0,1.0,9.0,66,0.00,,OVC018,0.00,555.00,VWS V14.00,2013-05-24 13:00:00,
2013-05-24 10:00:00,73.9,58.2,30.03,NNW,333,8.0,13.0,58,0.00,,OVC018,0.00,731.00,VWS V14.00,2013-05-24 14:00:00,
2013-05-24 11:00:00,74.7,54.3,30.05,North,349,12.0,16.0,49,0.00,,OVC018,0.00,867.00,VWS V14.00,2013-05-24 15:00:00,
2013-05-24 12:00:00,75.8,56.4,30.05,NNW,328,6.0,14.0,51,0.00,,OVC018,0.00,935.00,VWS V14.00,2013-05-24 16:00:00,
2013-05-24 13:00:00,76.5,53.6,30.05,North,1,9.0,12.0,45,0.00,,OVC018,0.00,962.00,VWS V14.00,2013-05-24 17:00:00,
2013-05-24 14:00:00,77.0,54.1,30.07,NNW,347,10.0,12.0,45,0.00,,OVC018,0.00,912.00,VWS V14.00,2013-05-24 18:00:00,
2013-05-24 15:00:00,77.3,54.9,30.07,North,357,6.0,14.0,46,0.00,,OVC018,0.00,819.00,VWS V14.00,2013-05-24 19:00:00,
2013-05-24 16:00:00,78.4,54.7,30.08,East,85,1.0,7.0,44,0.00,,OVC018,0.00,666.00,VWS V14.00,2013-05-24 20:00:00,
2013-05-24 17:00:00,78.7,49.5,30.08,NW,310,6.0,11.0,36,0.00,,OVC018,0.00,480.00,VWS V14.00,2013-05-24 21:00:00,
2013-05-24 18:00:00,77.9,50.3,30.09,NNW,338,3.0,3.0,38,0.00,,OVC018,0.00,279.00,VWS V14.00,2013-05-24 22:00:00,
2013-05-24 19:00:00,73.3,53.0,30.11,NNW,333,0.0,1.0,49,0.00,,OVC018,0.00,25.00,VWS V14.00,2013-05-24 23:00:00,
2013-05-24 20:00:00,65.3,53.2,30.12,NNW,341,0.0,0.0,65,0.00,,OVC018,0.00,0.00,VWS V14.00,2013-05-25 00:00:00,
2013-05-24 21:00:00,61.4,52.3,30.15,NNW,341,0.0,0.0,72,0.00,,OVC018,0.00,0.00,VWS V14.00,2013-05-25 01:00:00,
2013-05-24 22:00:00,63.2,52.5,30.16,North,359,0.0,0.0,68,0.00,,OVC018,0.00,0.00,VWS V14.00,2013-05-25 02:00:00,
2013-05-24 23:00:00,57.2,51.8,30.19,North,6,0.0,0.0,82,0.00,,OVC018,0.00,0.00,VWS V14.00,2013-05-25 03:00:00,